Montreal (YUL/CYUL)

Information

Location
Montreal, QB, Canada
Local Time
15:52 / 3:52 pm
GMT Time
19:52 / 7:52 pm
Gates
77
No FAA reported delays
METAR CYUL 281900Z 23019G24KT 30SM FEW045 BKN240 20/08 A2991 RMK CU1CI7 CU TR SLP131 DENSITY ALT 600FT
TAF TAF CYUL 281738Z 2818/2918 24018G28KT P6SM FEW040 BKN240 BECMG 2822/2824 23012G22KT FM290700 22010KT P6SM BKN100 BECMG 2912/2914 24015G25KT FM291500 24018G28KT P6SM FEW025 SCT040 BECMG 2915/2917 26020G35KT RMK NXT FCST BY 282100Z